sensor_id;sensor_type;location;lat;lon;timestamp;temperature;humidity
1447;DHT22;717;51.522;7.266;2022-07-29T00:01:26;24.20;77.00
1447;DHT22;717;51.522;7.266;2022-07-29T00:03:53;24.20;77.00
1447;DHT22;717;51.522;7.266;2022-07-29T00:06:19;24.20;76.90
1447;DHT22;717;51.522;7.266;2022-07-29T00:08:46;24.20;77.00
1447;DHT22;717;51.522;7.266;2022-07-29T00:11:13;24.10;77.10
1447;DHT22;717;51.522;7.266;2022-07-29T00:13:40;24.10;77.10
1447;DHT22;717;51.522;7.266;2022-07-29T00:16:08;24.10;77.00
1447;DHT22;717;51.522;7.266;2022-07-29T00:18:35;24.20;77.00
1447;DHT22;717;51.522;7.266;2022-07-29T00:21:02;24.10;77.10
1447;DHT22;717;51.522;7.266;2022-07-29T00:23:29;24.10;77.00
1447;DHT22;717;51.522;7.266;2022-07-29T00:25:56;24.00;77.00
1447;DHT22;717;51.522;7.266;2022-07-29T00:28:22;24.00;77.20
1447;DHT22;717;51.522;7.266;2022-07-29T00:30:49;24.00;77.10
1447;DHT22;717;51.522;7.266;2022-07-29T00:33:17;24.00;77.30
1447;DHT22;717;51.522;7.266;2022-07-29T00:35:44;24.00;77.40
1447;DHT22;717;51.522;7.266;2022-07-29T00:38:11;24.00;77.30
1447;DHT22;717;51.522;7.266;2022-07-29T00:40:37;24.00;77.40
1447;DHT22;717;51.522;7.266;2022-07-29T00:43:04;23.90;77.60
1447;DHT22;717;51.522;7.266;2022-07-29T00:45:31;24.00;77.70
1447;DHT22;717;51.522;7.266;2022-07-29T00:47:58;23.90;77.70
1447;DHT22;717;51.522;7.266;2022-07-29T00:50:26;23.90;77.70
1447;DHT22;717;51.522;7.266;2022-07-29T00:52:53;23.90;77.70
1447;DHT22;717;51.522;7.266;2022-07-29T00:55:20;23.90;77.70
1447;DHT22;717;51.522;7.266;2022-07-29T00:57:47;23.90;77.80
1447;DHT22;717;51.522;7.266;2022-07-29T01:00:17;23.90;77.80
1447;DHT22;717;51.522;7.266;2022-07-29T01:02:44;23.90;77.80
1447;DHT22;717;51.522;7.266;2022-07-29T01:05:13;23.90;77.90
1447;DHT22;717;51.522;7.266;2022-07-29T01:07:42;23.90;77.90
1447;DHT22;717;51.522;7.266;2022-07-29T01:10:09;23.90;78.00
1447;DHT22;717;51.522;7.266;2022-07-29T01:12:38;23.90;78.00
1447;DHT22;717;51.522;7.266;2022-07-29T01:15:07;23.90;78.10
1447;DHT22;717;51.522;7.266;2022-07-29T01:17:39;23.90;78.20
1447;DHT22;717;51.522;7.266;2022-07-29T01:20:12;23.80;78.10
1447;DHT22;717;51.522;7.266;2022-07-29T01:23:07;23.80;78.10
1447;DHT22;717;51.522;7.266;2022-07-29T01:25:53;23.80;78.20
1447;DHT22;717;51.522;7.266;2022-07-29T01:28:40;23.80;78.10
1447;DHT22;717;51.522;7.266;2022-07-29T01:31:10;23.70;78.10
1447;DHT22;717;51.522;7.266;2022-07-29T01:33:41;23.70;78.10
1447;DHT22;717;51.522;7.266;2022-07-29T01:36:18;23.80;78.10
1447;DHT22;717;51.522;7.266;2022-07-29T01:38:54;23.70;78.10
1447;DHT22;717;51.522;7.266;2022-07-29T01:41:21;23.70;79.00
1447;DHT22;717;51.522;7.266;2022-07-29T01:43:53;23.70;78.20
1447;DHT22;717;51.522;7.266;2022-07-29T01:46:25;23.70;78.40
1447;DHT22;717;51.522;7.266;2022-07-29T01:48:57;23.60;78.40
1447;DHT22;717;51.522;7.266;2022-07-29T01:51:30;23.60;78.40
1447;DHT22;717;51.522;7.266;2022-07-29T01:54:02;23.60;78.50
1447;DHT22;717;51.522;7.266;2022-07-29T01:56:31;23.60;78.60
1447;DHT22;717;51.522;7.266;2022-07-29T01:59:01;23.60;78.40
1447;DHT22;717;51.522;7.266;2022-07-29T02:01:30;23.60;78.40
1447;DHT22;717;51.522;7.266;2022-07-29T02:03:59;23.60;78.50
1447;DHT22;717;51.522;7.266;2022-07-29T02:06:30;23.60;78.60
1447;DHT22;717;51.522;7.266;2022-07-29T02:08:58;23.50;78.70
1447;DHT22;717;51.522;7.266;2022-07-29T02:11:26;23.50;78.80
1447;DHT22;717;51.522;7.266;2022-07-29T02:13:55;23.50;78.70
1447;DHT22;717;51.522;7.266;2022-07-29T02:16:27;23.50;78.70
1447;DHT22;717;51.522;7.266;2022-07-29T02:18:56;23.50;78.80
1447;DHT22;717;51.522;7.266;2022-07-29T02:21:24;23.50;78.90
1447;DHT22;717;51.522;7.266;2022-07-29T02:23:53;23.50;78.90
1447;DHT22;717;51.522;7.266;2022-07-29T02:26:21;23.50;78.90
1447;DHT22;717;51.522;7.266;2022-07-29T02:28:50;23.50;78.90
1447;DHT22;717;51.522;7.266;2022-07-29T02:31:21;23.50;78.90
1447;DHT22;717;51.522;7.266;2022-07-29T02:33:50;23.50;79.10
1447;DHT22;717;51.522;7.266;2022-07-29T02:36:21;23.40;79.10
1447;DHT22;717;51.522;7.266;2022-07-29T02:38:50;23.50;79.10
1447;DHT22;717;51.522;7.266;2022-07-29T02:41:20;23.40;79.20
1447;DHT22;717;51.522;7.266;2022-07-29T02:43:54;23.50;79.30
1447;DHT22;717;51.522;7.266;2022-07-29T02:46:29;23.40;79.30
1447;DHT22;717;51.522;7.266;2022-07-29T02:49:04;23.40;79.40
1447;DHT22;717;51.522;7.266;2022-07-29T02:51:40;23.40;79.40
1447;DHT22;717;51.522;7.266;2022-07-29T02:54:09;23.40;79.50
1447;DHT22;717;51.522;7.266;2022-07-29T02:56:38;23.30;79.50
1447;DHT22;717;51.522;7.266;2022-07-29T02:59:10;23.30;79.40
1447;DHT22;717;51.522;7.266;2022-07-29T03:01:40;23.30;79.50
1447;DHT22;717;51.522;7.266;2022-07-29T03:04:09;23.30;79.50
1447;DHT22;717;51.522;7.266;2022-07-29T03:06:38;23.30;79.40
1447;DHT22;717;51.522;7.266;2022-07-29T03:09:07;23.30;79.40
1447;DHT22;717;51.522;7.266;2022-07-29T03:11:35;23.30;79.50
1447;DHT22;717;51.522;7.266;2022-07-29T03:14:03;23.30;79.60
1447;DHT22;717;51.522;7.266;2022-07-29T03:16:31;23.30;79.80
1447;DHT22;717;51.522;7.266;2022-07-29T03:18:58;23.20;79.70
1447;DHT22;717;51.522;7.266;2022-07-29T03:21:27;23.20;79.70
1447;DHT22;717;51.522;7.266;2022-07-29T03:23:53;23.20;79.80
1447;DHT22;717;51.522;7.266;2022-07-29T03:26:20;23.20;80.00
1447;DHT22;717;51.522;7.266;2022-07-29T03:28:47;23.20;80.10
1447;DHT22;717;51.522;7.266;2022-07-29T03:31:14;23.20;80.30
1447;DHT22;717;51.522;7.266;2022-07-29T03:33:41;23.20;80.50
1447;DHT22;717;51.522;7.266;2022-07-29T03:36:07;23.20;80.50
1447;DHT22;717;51.522;7.266;2022-07-29T03:38:37;23.20;80.70
1447;DHT22;717;51.522;7.266;2022-07-29T03:41:07;23.20;80.80
1447;DHT22;717;51.522;7.266;2022-07-29T03:43:37;23.20;81.00
1447;DHT22;717;51.522;7.266;2022-07-29T03:46:06;23.20;81.10
1447;DHT22;717;51.522;7.266;2022-07-29T03:48:37;23.20;81.00
1447;DHT22;717;51.522;7.266;2022-07-29T03:51:05;23.20;81.00
1447;DHT22;717;51.522;7.266;2022-07-29T03:53:32;23.20;81.00
1447;DHT22;717;51.522;7.266;2022-07-29T03:56:02;23.10;80.70
1447;DHT22;717;51.522;7.266;2022-07-29T03:58:31;23.10;80.60
1447;DHT22;717;51.522;7.266;2022-07-29T04:00:59;23.00;80.60
1447;DHT22;717;51.522;7.266;2022-07-29T04:03:26;23.00;80.70
1447;DHT22;717;51.522;7.266;2022-07-29T04:06:01;23.00;80.90
1447;DHT22;717;51.522;7.266;2022-07-29T04:08:28;22.90;80.90
1447;DHT22;717;51.522;7.266;2022-07-29T04:10:55;22.90;81.10
1447;DHT22;717;51.522;7.266;2022-07-29T04:13:23;22.90;81.20
1447;DHT22;717;51.522;7.266;2022-07-29T04:15:50;22.90;81.30
1447;DHT22;717;51.522;7.266;2022-07-29T04:18:16;22.90;81.30
1447;DHT22;717;51.522;7.266;2022-07-29T04:20:43;22.90;81.30
1447;DHT22;717;51.522;7.266;2022-07-29T04:23:10;22.80;81.20
1447;DHT22;717;51.522;7.266;2022-07-29T04:25:37;22.90;81.30
1447;DHT22;717;51.522;7.266;2022-07-29T04:28:05;22.80;81.30
1447;DHT22;717;51.522;7.266;2022-07-29T04:30:34;22.80;81.50
1447;DHT22;717;51.522;7.266;2022-07-29T04:33:03;22.80;81.60
1447;DHT22;717;51.522;7.266;2022-07-29T04:35:31;22.70;81.60
1447;DHT22;717;51.522;7.266;2022-07-29T04:37:59;22.80;81.80
1447;DHT22;717;51.522;7.266;2022-07-29T04:40:27;22.70;81.70
1447;DHT22;717;51.522;7.266;2022-07-29T04:42:54;22.70;81.80
1447;DHT22;717;51.522;7.266;2022-07-29T04:45:21;22.70;82.00
1447;DHT22;717;51.522;7.266;2022-07-29T04:47:49;22.80;82.20
1447;DHT22;717;51.522;7.266;2022-07-29T04:50:16;22.70;82.10
1447;DHT22;717;51.522;7.266;2022-07-29T04:52:43;22.70;82.20
1447;DHT22;717;51.522;7.266;2022-07-29T04:55:09;22.70;82.40
1447;DHT22;717;51.522;7.266;2022-07-29T04:57:36;22.70;82.50
1447;DHT22;717;51.522;7.266;2022-07-29T05:00:04;22.70;82.50
1447;DHT22;717;51.522;7.266;2022-07-29T05:02:31;22.70;82.80
1447;DHT22;717;51.522;7.266;2022-07-29T05:04:59;22.60;83.00
1447;DHT22;717;51.522;7.266;2022-07-29T05:07:26;22.60;83.50
1447;DHT22;717;51.522;7.266;2022-07-29T05:09:53;22.60;83.70
1447;DHT22;717;51.522;7.266;2022-07-29T05:12:22;22.60;84.00
1447;DHT22;717;51.522;7.266;2022-07-29T05:14:49;22.50;84.20
1447;DHT22;717;51.522;7.266;2022-07-29T05:17:16;22.50;85.00
1447;DHT22;717;51.522;7.266;2022-07-29T05:19:43;22.50;84.40
1447;DHT22;717;51.522;7.266;2022-07-29T05:22:11;22.40;84.50
1447;DHT22;717;51.522;7.266;2022-07-29T05:24:38;22.40;84.60
1447;DHT22;717;51.522;7.266;2022-07-29T05:27:05;22.40;84.80
1447;DHT22;717;51.522;7.266;2022-07-29T05:29:32;22.40;84.90
1447;DHT22;717;51.522;7.266;2022-07-29T05:31:59;22.40;85.00
1447;DHT22;717;51.522;7.266;2022-07-29T05:34:26;22.40;85.10
1447;DHT22;717;51.522;7.266;2022-07-29T05:36:52;22.40;85.10
1447;DHT22;717;51.522;7.266;2022-07-29T05:39:22;22.40;85.20
1447;DHT22;717;51.522;7.266;2022-07-29T05:41:49;22.30;85.10
1447;DHT22;717;51.522;7.266;2022-07-29T05:44:16;22.40;85.20
1447;DHT22;717;51.522;7.266;2022-07-29T05:46:43;22.30;85.20
1447;DHT22;717;51.522;7.266;2022-07-29T05:49:10;22.40;85.30
1447;DHT22;717;51.522;7.266;2022-07-29T05:51:37;22.40;85.40
1447;DHT22;717;51.522;7.266;2022-07-29T05:54:04;22.40;85.50
1447;DHT22;717;51.522;7.266;2022-07-29T05:56:32;22.40;85.50
1447;DHT22;717;51.522;7.266;2022-07-29T05:58:58;22.40;85.60
1447;DHT22;717;51.522;7.266;2022-07-29T06:01:25;22.40;85.70
1447;DHT22;717;51.522;7.266;2022-07-29T06:03:52;22.40;86.00
1447;DHT22;717;51.522;7.266;2022-07-29T06:06:19;22.40;86.80
1447;DHT22;717;51.522;7.266;2022-07-29T06:08:46;22.40;86.00
1447;DHT22;717;51.522;7.266;2022-07-29T06:11:12;22.50;86.90
1447;DHT22;717;51.522;7.266;2022-07-29T06:13:40;22.50;86.20
1447;DHT22;717;51.522;7.266;2022-07-29T06:16:07;22.50;86.30
1447;DHT22;717;51.522;7.266;2022-07-29T06:18:34;22.50;86.40
1447;DHT22;717;51.522;7.266;2022-07-29T06:21:01;22.50;86.50
1447;DHT22;717;51.522;7.266;2022-07-29T06:23:27;22.50;86.50
1447;DHT22;717;51.522;7.266;2022-07-29T06:25:54;22.50;86.70
1447;DHT22;717;51.522;7.266;2022-07-29T06:28:21;22.50;86.80
1447;DHT22;717;51.522;7.266;2022-07-29T06:30:50;22.50;87.70
1447;DHT22;717;51.522;7.266;2022-07-29T06:33:17;22.40;87.30
1447;DHT22;717;51.522;7.266;2022-07-29T06:35:45;22.50;87.40
1447;DHT22;717;51.522;7.266;2022-07-29T06:38:12;22.50;87.50
1447;DHT22;717;51.522;7.266;2022-07-29T06:40:41;22.50;87.60
1447;DHT22;717;51.522;7.266;2022-07-29T06:43:26;22.50;87.60
1447;DHT22;717;51.522;7.266;2022-07-29T06:45:55;22.50;87.60
1447;DHT22;717;51.522;7.266;2022-07-29T06:48:22;22.50;87.80
1447;DHT22;717;51.522;7.266;2022-07-29T06:50:49;22.40;87.90
1447;DHT22;717;51.522;7.266;2022-07-29T06:53:16;22.50;88.10
1447;DHT22;717;51.522;7.266;2022-07-29T06:55:43;22.50;88.20
1447;DHT22;717;51.522;7.266;2022-07-29T06:58:10;22.50;88.20
1447;DHT22;717;51.522;7.266;2022-07-29T07:00:37;22.50;88.20
1447;DHT22;717;51.522;7.266;2022-07-29T07:03:05;22.50;88.10
1447;DHT22;717;51.522;7.266;2022-07-29T07:05:32;22.50;88.00
1447;DHT22;717;51.522;7.266;2022-07-29T07:07:59;22.50;88.80
1447;DHT22;717;51.522;7.266;2022-07-29T07:10:26;22.50;87.90
1447;DHT22;717;51.522;7.266;2022-07-29T07:12:53;22.60;87.90
1447;DHT22;717;51.522;7.266;2022-07-29T07:15:20;22.50;87.90
1447;DHT22;717;51.522;7.266;2022-07-29T07:17:47;22.50;87.80
1447;DHT22;717;51.522;7.266;2022-07-29T07:20:16;22.60;88.00
1447;DHT22;717;51.522;7.266;2022-07-29T07:22:43;22.60;88.10
1447;DHT22;717;51.522;7.266;2022-07-29T07:25:10;22.60;88.30
1447;DHT22;717;51.522;7.266;2022-07-29T07:27:38;22.70;88.50
1447;DHT22;717;51.522;7.266;2022-07-29T07:30:07;22.70;88.70
1447;DHT22;717;51.522;7.266;2022-07-29T07:32:34;22.70;88.70
1447;DHT22;717;51.522;7.266;2022-07-29T07:35:03;22.70;88.60
1447;DHT22;717;51.522;7.266;2022-07-29T07:37:31;22.70;88.60
1447;DHT22;717;51.522;7.266;2022-07-29T07:39:58;22.80;88.80
1447;DHT22;717;51.522;7.266;2022-07-29T07:42:25;22.80;88.70
1447;DHT22;717;51.522;7.266;2022-07-29T07:44:52;22.80;88.60
1447;DHT22;717;51.522;7.266;2022-07-29T07:47:19;22.80;88.60
1447;DHT22;717;51.522;7.266;2022-07-29T07:49:46;22.90;88.60
1447;DHT22;717;51.522;7.266;2022-07-29T07:52:13;22.90;88.50
1447;DHT22;717;51.522;7.266;2022-07-29T07:54:41;22.90;88.50
1447;DHT22;717;51.522;7.266;2022-07-29T07:57:09;22.90;88.30
1447;DHT22;717;51.522;7.266;2022-07-29T07:59:36;22.90;88.10
1447;DHT22;717;51.522;7.266;2022-07-29T08:02:03;23.00;88.40
1447;DHT22;717;51.522;7.266;2022-07-29T08:04:30;23.00;88.20
1447;DHT22;717;51.522;7.266;2022-07-29T08:06:57;23.00;88.10
1447;DHT22;717;51.522;7.266;2022-07-29T08:09:26;23.00;88.10
1447;DHT22;717;51.522;7.266;2022-07-29T08:11:54;23.00;88.30
1447;DHT22;717;51.522;7.266;2022-07-29T08:14:21;23.00;88.60
1447;DHT22;717;51.522;7.266;2022-07-29T08:16:48;23.00;88.60
1447;DHT22;717;51.522;7.266;2022-07-29T08:19:15;23.00;88.80
1447;DHT22;717;51.522;7.266;2022-07-29T08:21:42;23.10;88.80
1447;DHT22;717;51.522;7.266;2022-07-29T08:24:08;23.10;88.90
1447;DHT22;717;51.522;7.266;2022-07-29T08:26:54;23.10;88.80
1447;DHT22;717;51.522;7.266;2022-07-29T08:29:21;23.10;89.00
1447;DHT22;717;51.522;7.266;2022-07-29T08:31:48;23.10;88.90
1447;DHT22;717;51.522;7.266;2022-07-29T08:34:15;23.10;88.90
1447;DHT22;717;51.522;7.266;2022-07-29T08:36:42;23.20;88.90
1447;DHT22;717;51.522;7.266;2022-07-29T08:39:08;23.10;88.80
1447;DHT22;717;51.522;7.266;2022-07-29T08:41:36;23.20;88.80
1447;DHT22;717;51.522;7.266;2022-07-29T08:44:04;23.20;88.80
1447;DHT22;717;51.522;7.266;2022-07-29T08:46:31;23.20;88.90
1447;DHT22;717;51.522;7.266;2022-07-29T08:48:58;23.20;89.00
1447;DHT22;717;51.522;7.266;2022-07-29T08:51:25;23.20;89.20
1447;DHT22;717;51.522;7.266;2022-07-29T08:53:53;23.20;89.40
1447;DHT22;717;51.522;7.266;2022-07-29T08:56:21;23.20;89.50
1447;DHT22;717;51.522;7.266;2022-07-29T08:58:49;23.20;89.70
1447;DHT22;717;51.522;7.266;2022-07-29T09:01:21;23.20;89.80
1447;DHT22;717;51.522;7.266;2022-07-29T09:03:49;23.20;90.00
1447;DHT22;717;51.522;7.266;2022-07-29T09:06:17;23.20;90.00
1447;DHT22;717;51.522;7.266;2022-07-29T09:08:44;23.20;90.00
1447;DHT22;717;51.522;7.266;2022-07-29T09:11:12;23.20;90.10
1447;DHT22;717;51.522;7.266;2022-07-29T09:13:39;23.20;90.10
1447;DHT22;717;51.522;7.266;2022-07-29T09:16:07;23.20;90.20
1447;DHT22;717;51.522;7.266;2022-07-29T09:18:36;23.30;90.30
1447;DHT22;717;51.522;7.266;2022-07-29T09:21:04;23.30;90.40
1447;DHT22;717;51.522;7.266;2022-07-29T09:24:03;23.30;90.40
1447;DHT22;717;51.522;7.266;2022-07-29T09:26:31;23.30;90.50
1447;DHT22;717;51.522;7.266;2022-07-29T09:28:59;23.20;90.40
1447;DHT22;717;51.522;7.266;2022-07-29T09:31:32;23.20;90.60
1447;DHT22;717;51.522;7.266;2022-07-29T09:34:01;23.20;90.70
1447;DHT22;717;51.522;7.266;2022-07-29T09:36:28;23.20;90.70
1447;DHT22;717;51.522;7.266;2022-07-29T09:38:59;23.20;90.80
1447;DHT22;717;51.522;7.266;2022-07-29T09:41:27;23.20;90.90
1447;DHT22;717;51.522;7.266;2022-07-29T09:43:55;23.20;90.90
1447;DHT22;717;51.522;7.266;2022-07-29T09:46:24;23.30;91.00
1447;DHT22;717;51.522;7.266;2022-07-29T09:49:07;23.20;91.00
1447;DHT22;717;51.522;7.266;2022-07-29T09:51:35;23.20;90.90
1447;DHT22;717;51.522;7.266;2022-07-29T09:54:02;23.20;90.90
1447;DHT22;717;51.522;7.266;2022-07-29T09:56:39;23.30;90.80
1447;DHT22;717;51.522;7.266;2022-07-29T09:59:06;23.30;90.80
1447;DHT22;717;51.522;7.266;2022-07-29T10:01:34;23.30;90.80
1447;DHT22;717;51.522;7.266;2022-07-29T10:04:01;23.30;90.80
1447;DHT22;717;51.522;7.266;2022-07-29T10:06:30;23.30;90.90
1447;DHT22;717;51.522;7.266;2022-07-29T10:09:07;23.30;90.90
1447;DHT22;717;51.522;7.266;2022-07-29T10:11:35;23.30;91.00
1447;DHT22;717;51.522;7.266;2022-07-29T10:14:03;23.30;91.00
1447;DHT22;717;51.522;7.266;2022-07-29T10:16:30;23.30;90.90
1447;DHT22;717;51.522;7.266;2022-07-29T10:18:59;23.30;90.90
1447;DHT22;717;51.522;7.266;2022-07-29T10:21:27;23.30;90.90
1447;DHT22;717;51.522;7.266;2022-07-29T10:23:57;23.30;90.90
1447;DHT22;717;51.522;7.266;2022-07-29T10:26:25;23.30;90.90
1447;DHT22;717;51.522;7.266;2022-07-29T10:28:52;23.30;90.90
1447;DHT22;717;51.522;7.266;2022-07-29T10:31:28;23.30;90.90
1447;DHT22;717;51.522;7.266;2022-07-29T10:34:03;23.30;91.00
1447;DHT22;717;51.522;7.266;2022-07-29T10:36:43;23.30;91.00
1447;DHT22;717;51.522;7.266;2022-07-29T10:39:24;23.30;91.10
1447;DHT22;717;51.522;7.266;2022-07-29T10:42:06;23.30;91.00
1447;DHT22;717;51.522;7.266;2022-07-29T10:44:35;23.30;91.00
1447;DHT22;717;51.522;7.266;2022-07-29T10:47:05;23.30;91.00
1447;DHT22;717;51.522;7.266;2022-07-29T10:49:32;23.40;91.10
1447;DHT22;717;51.522;7.266;2022-07-29T10:52:02;23.30;91.10
1447;DHT22;717;51.522;7.266;2022-07-29T10:54:45;23.40;91.30
1447;DHT22;717;51.522;7.266;2022-07-29T10:57:24;23.30;91.30
1447;DHT22;717;51.522;7.266;2022-07-29T11:00:26;23.30;91.30
1447;DHT22;717;51.522;7.266;2022-07-29T11:02:54;23.30;91.10
1447;DHT22;717;51.522;7.266;2022-07-29T11:05:23;23.30;91.10
1447;DHT22;717;51.522;7.266;2022-07-29T11:08:23;23.30;91.00
1447;DHT22;717;51.522;7.266;2022-07-29T11:13:50;23.30;90.80
1447;DHT22;717;51.522;7.266;2022-07-29T11:16:19;23.30;90.70
1447;DHT22;717;51.522;7.266;2022-07-29T11:19:20;23.30;90.70
1447;DHT22;717;51.522;7.266;2022-07-29T11:21:47;23.30;90.60
1447;DHT22;717;51.522;7.266;2022-07-29T11:24:17;23.30;90.70
1447;DHT22;717;51.522;7.266;2022-07-29T11:26:45;23.30;90.80
1447;DHT22;717;51.522;7.266;2022-07-29T11:29:32;23.30;91.00
1447;DHT22;717;51.522;7.266;2022-07-29T11:32:09;23.30;91.10
1447;DHT22;717;51.522;7.266;2022-07-29T11:34:36;23.30;91.30
1447;DHT22;717;51.522;7.266;2022-07-29T11:37:17;23.30;91.50
1447;DHT22;717;51.522;7.266;2022-07-29T11:39:46;23.30;91.90
1447;DHT22;717;51.522;7.266;2022-07-29T11:42:40;23.30;91.70
1447;DHT22;717;51.522;7.266;2022-07-29T11:45:08;23.30;91.90
1447;DHT22;717;51.522;7.266;2022-07-29T11:47:38;23.30;92.00
1447;DHT22;717;51.522;7.266;2022-07-29T11:50:07;23.40;92.10
1447;DHT22;717;51.522;7.266;2022-07-29T11:52:37;23.30;92.10
1447;DHT22;717;51.522;7.266;2022-07-29T11:55:10;23.40;92.20
1447;DHT22;717;51.522;7.266;2022-07-29T11:57:46;23.40;92.20
1447;DHT22;717;51.522;7.266;2022-07-29T12:00:21;23.40;92.20
1447;DHT22;717;51.522;7.266;2022-07-29T12:02:49;23.40;92.10
1447;DHT22;717;51.522;7.266;2022-07-29T12:05:17;23.40;92.10
1447;DHT22;717;51.522;7.266;2022-07-29T12:07:44;23.40;92.10
1447;DHT22;717;51.522;7.266;2022-07-29T12:10:11;23.40;92.10
1447;DHT22;717;51.522;7.266;2022-07-29T12:12:38;23.40;92.00
1447;DHT22;717;51.522;7.266;2022-07-29T12:15:14;23.50;92.00
1447;DHT22;717;51.522;7.266;2022-07-29T12:17:43;23.50;92.10
1447;DHT22;717;51.522;7.266;2022-07-29T12:20:09;23.40;92.00
1447;DHT22;717;51.522;7.266;2022-07-29T12:22:40;23.50;92.10
1447;DHT22;717;51.522;7.266;2022-07-29T12:25:11;23.50;92.20
1447;DHT22;717;51.522;7.266;2022-07-29T12:27:41;23.40;92.10
1447;DHT22;717;51.522;7.266;2022-07-29T12:30:10;23.50;92.10
1447;DHT22;717;51.522;7.266;2022-07-29T12:32:41;23.50;92.10
1447;DHT22;717;51.522;7.266;2022-07-29T12:35:11;23.50;92.00
1447;DHT22;717;51.522;7.266;2022-07-29T12:37:40;23.60;92.20
1447;DHT22;717;51.522;7.266;2022-07-29T12:40:10;23.60;92.30
1447;DHT22;717;51.522;7.266;2022-07-29T12:42:38;23.60;92.20
1447;DHT22;717;51.522;7.266;2022-07-29T12:45:07;23.60;92.10
1447;DHT22;717;51.522;7.266;2022-07-29T12:47:52;23.60;92.10
1447;DHT22;717;51.522;7.266;2022-07-29T12:50:19;23.60;92.20
1447;DHT22;717;51.522;7.266;2022-07-29T12:52:46;23.60;92.40
1447;DHT22;717;51.522;7.266;2022-07-29T12:55:14;23.70;92.50
1447;DHT22;717;51.522;7.266;2022-07-29T12:57:47;23.70;92.40
1447;DHT22;717;51.522;7.266;2022-07-29T13:00:16;23.80;92.30
1447;DHT22;717;51.522;7.266;2022-07-29T13:02:57;23.80;92.20
1447;DHT22;717;51.522;7.266;2022-07-29T13:05:24;23.90;92.40
1447;DHT22;717;51.522;7.266;2022-07-29T13:08:10;23.90;92.20
1447;DHT22;717;51.522;7.266;2022-07-29T13:10:37;23.90;92.20
1447;DHT22;717;51.522;7.266;2022-07-29T13:13:05;24.10;92.00
1447;DHT22;717;51.522;7.266;2022-07-29T13:15:34;24.10;92.00
1447;DHT22;717;51.522;7.266;2022-07-29T13:18:02;24.10;92.00
1447;DHT22;717;51.522;7.266;2022-07-29T13:20:29;24.10;92.00
1447;DHT22;717;51.522;7.266;2022-07-29T13:22:57;24.20;92.10
1447;DHT22;717;51.522;7.266;2022-07-29T13:25:25;24.30;92.00
1447;DHT22;717;51.522;7.266;2022-07-29T13:27:52;24.30;91.70
1447;DHT22;717;51.522;7.266;2022-07-29T13:30:21;24.30;91.70
1447;DHT22;717;51.522;7.266;2022-07-29T13:32:49;24.40;91.70
1447;DHT22;717;51.522;7.266;2022-07-29T13:35:17;24.40;91.60
1447;DHT22;717;51.522;7.266;2022-07-29T13:37:44;24.40;91.50
1447;DHT22;717;51.522;7.266;2022-07-29T13:40:12;24.40;91.30
1447;DHT22;717;51.522;7.266;2022-07-29T13:42:40;24.50;91.20
1447;DHT22;717;51.522;7.266;2022-07-29T13:45:08;24.50;91.40
1447;DHT22;717;51.522;7.266;2022-07-29T13:47:36;24.50;91.60
1447;DHT22;717;51.522;7.266;2022-07-29T13:50:04;24.50;91.80
1447;DHT22;717;51.522;7.266;2022-07-29T13:52:33;24.60;91.80
1447;DHT22;717;51.522;7.266;2022-07-29T13:55:01;24.60;91.60
1447;DHT22;717;51.522;7.266;2022-07-29T13:57:29;24.70;91.50
1447;DHT22;717;51.522;7.266;2022-07-29T13:59:56;24.70;91.30
1447;DHT22;717;51.522;7.266;2022-07-29T14:02:23;24.70;91.30
1447;DHT22;717;51.522;7.266;2022-07-29T14:04:50;24.80;91.30
1447;DHT22;717;51.522;7.266;2022-07-29T14:07:17;24.80;91.30
1447;DHT22;717;51.522;7.266;2022-07-29T14:09:46;24.80;91.30
1447;DHT22;717;51.522;7.266;2022-07-29T14:12:12;24.80;91.20
1447;DHT22;717;51.522;7.266;2022-07-29T14:14:39;24.90;91.30
1447;DHT22;717;51.522;7.266;2022-07-29T14:17:07;24.90;91.30
1447;DHT22;717;51.522;7.266;2022-07-29T14:19:34;24.90;91.30
1447;DHT22;717;51.522;7.266;2022-07-29T14:22:03;25.00;91.00
1447;DHT22;717;51.522;7.266;2022-07-29T14:24:31;25.00;90.80
1447;DHT22;717;51.522;7.266;2022-07-29T14:26:59;25.00;90.80
1447;DHT22;717;51.522;7.266;2022-07-29T14:29:26;25.10;90.70
1447;DHT22;717;51.522;7.266;2022-07-29T14:31:53;25.10;90.50
1447;DHT22;717;51.522;7.266;2022-07-29T14:34:20;25.20;90.40
1447;DHT22;717;51.522;7.266;2022-07-29T14:36:47;25.20;90.40
1447;DHT22;717;51.522;7.266;2022-07-29T14:39:14;25.20;90.30
1447;DHT22;717;51.522;7.266;2022-07-29T14:41:42;25.20;90.20
1447;DHT22;717;51.522;7.266;2022-07-29T14:44:10;25.30;90.10
1447;DHT22;717;51.522;7.266;2022-07-29T14:46:37;25.40;90.10
1447;DHT22;717;51.522;7.266;2022-07-29T14:49:04;25.40;90.10
1447;DHT22;717;51.522;7.266;2022-07-29T14:51:31;25.40;90.00
1447;DHT22;717;51.522;7.266;2022-07-29T14:53:59;25.50;90.00
1447;DHT22;717;51.522;7.266;2022-07-29T14:56:26;25.50;90.10
1447;DHT22;717;51.522;7.266;2022-07-29T14:58:55;25.60;90.20
1447;DHT22;717;51.522;7.266;2022-07-29T15:01:25;25.70;90.30
1447;DHT22;717;51.522;7.266;2022-07-29T15:03:52;25.70;90.20
1447;DHT22;717;51.522;7.266;2022-07-29T15:06:19;25.70;90.20
1447;DHT22;717;51.522;7.266;2022-07-29T15:08:46;25.80;90.20
1447;DHT22;717;51.522;7.266;2022-07-29T15:11:13;25.80;90.00
1447;DHT22;717;51.522;7.266;2022-07-29T15:13:40;25.90;89.40
1447;DHT22;717;51.522;7.266;2022-07-29T15:16:07;25.90;89.40
1447;DHT22;717;51.522;7.266;2022-07-29T15:18:36;26.00;89.20
1447;DHT22;717;51.522;7.266;2022-07-29T15:21:04;26.00;89.00
1447;DHT22;717;51.522;7.266;2022-07-29T15:23:32;26.10;88.70
1447;DHT22;717;51.522;7.266;2022-07-29T15:26:00;26.10;88.60
1447;DHT22;717;51.522;7.266;2022-07-29T15:28:27;26.20;88.60
1447;DHT22;717;51.522;7.266;2022-07-29T15:30:54;26.20;88.00
1447;DHT22;717;51.522;7.266;2022-07-29T15:33:21;26.30;88.10
1447;DHT22;717;51.522;7.266;2022-07-29T15:35:49;26.40;87.70
1447;DHT22;717;51.522;7.266;2022-07-29T15:38:16;26.40;87.30
1447;DHT22;717;51.522;7.266;2022-07-29T15:40:43;26.40;87.30
1447;DHT22;717;51.522;7.266;2022-07-29T15:43:11;26.40;87.20
1447;DHT22;717;51.522;7.266;2022-07-29T15:45:39;26.50;87.10
1447;DHT22;717;51.522;7.266;2022-07-29T15:48:08;26.50;86.70
1447;DHT22;717;51.522;7.266;2022-07-29T15:50:35;26.50;86.50
1447;DHT22;717;51.522;7.266;2022-07-29T15:53:03;26.50;86.80
1447;DHT22;717;51.522;7.266;2022-07-29T15:55:30;26.50;87.10
1447;DHT22;717;51.522;7.266;2022-07-29T15:57:57;26.60;87.40
1447;DHT22;717;51.522;7.266;2022-07-29T16:00:24;26.60;87.40
1447;DHT22;717;51.522;7.266;2022-07-29T16:02:50;26.60;87.60
1447;DHT22;717;51.522;7.266;2022-07-29T16:05:17;26.60;87.60
1447;DHT22;717;51.522;7.266;2022-07-29T16:07:44;26.60;87.60
1447;DHT22;717;51.522;7.266;2022-07-29T16:10:12;26.70;87.10
1447;DHT22;717;51.522;7.266;2022-07-29T16:12:39;26.70;87.10
1447;DHT22;717;51.522;7.266;2022-07-29T16:15:07;26.70;87.30
1447;DHT22;717;51.522;7.266;2022-07-29T16:17:35;26.80;87.00
1447;DHT22;717;51.522;7.266;2022-07-29T16:20:03;26.80;86.60
1447;DHT22;717;51.522;7.266;2022-07-29T16:22:31;26.80;86.60
1447;DHT22;717;51.522;7.266;2022-07-29T16:24:58;26.80;86.10
1447;DHT22;717;51.522;7.266;2022-07-29T16:27:26;26.90;86.30
1447;DHT22;717;51.522;7.266;2022-07-29T16:29:53;26.90;86.40
1447;DHT22;717;51.522;7.266;2022-07-29T16:32:21;26.90;86.40